UAE7MY OMDB-YPPH
Flight info
| Callsign | UAE7MY |
|---|---|
| Flight time | N/A |
| Altitude | 35000 |
| Route | ANVIX L223 TARDI N629 GIDAN P570 KITAL L894 GOLEM/N0498F370 L894 BIBGO DCT LAVOX DCT KADAP DCT 0500S08730E/N0489F390 DCT BEBIM DCT 15S100E 18S105E DCT WONSA/N0486F410 DCT CAR B469 TOPIR/N0489F400 L514 AVPAL Q38 JULIM |
| Aircraft | A359/H-SDE2E3GHIJ3J4J5LM1ORWXY/LB1D1 |
Departure
| Time | N/A |
|---|---|
| Airport | Dubai International Airport (OMDB) |
Arrival
| Time | 2026-05-07 20:07 |
|---|---|
| Airport | Perth International Airport (YPPH) |
| Time | Latitude | Longitude | Altitude | Speed | Heading |
|---|---|---|---|---|---|
| 2026-05-07 17:41 | -17.57640 | 104.27153 | 35018 ft | 564 kts | 126° |
| 2026-05-07 17:42 | -17.61740 | 104.34168 | 35018 ft | 564 kts | 126° |
| 2026-05-07 17:42 | -17.65808 | 104.41135 | 35021 ft | 564 kts | 126° |
| 2026-05-07 17:43 | -17.69907 | 104.48160 | 35019 ft | 564 kts | 125° |
| 2026-05-07 17:43 | -17.73997 | 104.55180 | 35020 ft | 564 kts | 125° |
| 2026-05-07 17:44 | -17.78087 | 104.62206 | 35019 ft | 564 kts | 125° |
| 2026-05-07 17:44 | -17.82149 | 104.69192 | 35021 ft | 564 kts | 125° |
| 2026-05-07 17:45 | -17.86235 | 104.76227 | 35042 ft | 565 kts | 125° |
| 2026-05-07 17:45 | -17.90331 | 104.83283 | 35026 ft | 568 kts | 125° |
| 2026-05-07 17:46 | -17.94446 | 104.90381 | 35025 ft | 569 kts | 125° |
| 2026-05-07 17:46 | -17.98527 | 104.97428 | 35032 ft | 568 kts | 126° |
| 2026-05-07 17:47 | -18.03302 | 105.03946 | 35030 ft | 561 kts | 135° |
| 2026-05-07 17:47 | -18.08399 | 105.10135 | 35026 ft | 560 kts | 136° |
| 2026-05-07 17:48 | -18.13552 | 105.16290 | 35033 ft | 560 kts | 136° |
| 2026-05-07 17:48 | -18.18666 | 105.22413 | 35038 ft | 562 kts | 136° |
| 2026-05-07 17:49 | -18.23816 | 105.28606 | 35026 ft | 563 kts | 136° |
| 2026-05-07 17:49 | -18.28969 | 105.34817 | 35033 ft | 563 kts | 136° |
| 2026-05-07 17:50 | -18.34118 | 105.41033 | 35031 ft | 563 kts | 136° |
| 2026-05-07 17:50 | -18.39261 | 105.47244 | 35028 ft | 563 kts | 136° |
| 2026-05-07 17:51 | -18.44378 | 105.53430 | 35031 ft | 563 kts | 136° |
| 2026-05-07 17:51 | -18.49521 | 105.59654 | 35036 ft | 564 kts | 136° |
| 2026-05-07 17:52 | -18.54679 | 105.65900 | 35033 ft | 565 kts | 136° |
| 2026-05-07 17:52 | -18.59838 | 105.72155 | 35037 ft | 565 kts | 136° |
| 2026-05-07 17:53 | -18.64962 | 105.78375 | 35034 ft | 565 kts | 136° |
| 2026-05-07 17:53 | -18.70113 | 105.84634 | 35034 ft | 565 kts | 136° |
| 2026-05-07 17:54 | -18.75264 | 105.90898 | 35034 ft | 565 kts | 136° |
| 2026-05-07 17:54 | -18.80421 | 105.97176 | 35035 ft | 567 kts | 136° |
| 2026-05-07 17:55 | -18.85558 | 106.03435 | 35037 ft | 568 kts | 136° |
| 2026-05-07 17:55 | -18.90725 | 106.09740 | 35037 ft | 568 kts | 136° |
| 2026-05-07 17:56 | -18.95889 | 106.16047 | 35039 ft | 568 kts | 136° |
| 2026-05-07 17:56 | -19.01058 | 106.22365 | 35039 ft | 568 kts | 136° |
| 2026-05-07 17:57 | -19.06220 | 106.28682 | 35039 ft | 568 kts | 136° |
| 2026-05-07 17:57 | -19.11352 | 106.34970 | 35043 ft | 569 kts | 137° |
| 2026-05-07 17:58 | -19.16524 | 106.41311 | 35036 ft | 569 kts | 137° |
| 2026-05-07 17:58 | -19.21691 | 106.47653 | 35044 ft | 569 kts | 137° |
| 2026-05-07 17:59 | -19.26860 | 106.54004 | 35042 ft | 569 kts | 137° |
| 2026-05-07 17:59 | -19.31989 | 106.60314 | 35043 ft | 569 kts | 136° |
| 2026-05-07 18:00 | -19.37150 | 106.66670 | 35054 ft | 570 kts | 137° |
| 2026-05-07 18:00 | -19.42321 | 106.73042 | 35050 ft | 571 kts | 137° |
| 2026-05-07 18:01 | -19.47500 | 106.79431 | 35042 ft | 572 kts | 137° |
| 2026-05-07 18:01 | -19.52643 | 106.85785 | 35042 ft | 572 kts | 137° |
| 2026-05-07 18:02 | -19.60406 | 106.95390 | 35045 ft | 572 kts | 137° |
| 2026-05-07 18:03 | -19.65580 | 107.01798 | 35062 ft | 572 kts | 137° |
| 2026-05-07 18:03 | -19.70764 | 107.08226 | 35044 ft | 573 kts | 137° |
| 2026-05-07 18:04 | -19.75908 | 107.14611 | 35044 ft | 573 kts | 137° |
| 2026-05-07 18:04 | -19.81089 | 107.21049 | 35045 ft | 573 kts | 137° |
| 2026-05-07 18:05 | -19.86266 | 107.27490 | 35049 ft | 573 kts | 137° |
| 2026-05-07 18:05 | -19.91439 | 107.33933 | 35047 ft | 573 kts | 137° |
| 2026-05-07 18:06 | -19.96617 | 107.40390 | 35047 ft | 574 kts | 137° |
| 2026-05-07 18:06 | -20.01761 | 107.46809 | 35049 ft | 574 kts | 137° |
| 2026-05-07 18:07 | -20.06944 | 107.53286 | 35051 ft | 575 kts | 137° |
| 2026-05-07 18:07 | -20.12119 | 107.59761 | 35054 ft | 574 kts | 137° |
| 2026-05-07 18:08 | -20.17293 | 107.66241 | 35052 ft | 575 kts | 137° |
| 2026-05-07 18:08 | -20.22464 | 107.72724 | 35086 ft | 575 kts | 137° |
| 2026-05-07 18:09 | -20.27606 | 107.79179 | 35050 ft | 576 kts | 137° |
| 2026-05-07 18:09 | -20.32787 | 107.85688 | 35052 ft | 576 kts | 137° |
| 2026-05-07 18:10 | -20.37959 | 107.92194 | 35048 ft | 576 kts | 137° |
| 2026-05-07 18:10 | -20.43133 | 107.98711 | 35048 ft | 576 kts | 137° |
| 2026-05-07 18:11 | -20.48272 | 108.05192 | 35048 ft | 576 kts | 137° |
| 2026-05-07 18:11 | -20.53437 | 108.11712 | 35049 ft | 576 kts | 137° |
| 2026-05-07 18:12 | -20.58605 | 108.18243 | 35051 ft | 576 kts | 137° |
| 2026-05-07 18:12 | -20.63768 | 108.24776 | 35051 ft | 576 kts | 137° |
| 2026-05-07 18:13 | -20.68930 | 108.31314 | 35050 ft | 576 kts | 137° |
| 2026-05-07 18:13 | -20.74060 | 108.37819 | 35051 ft | 576 kts | 137° |
| 2026-05-07 18:14 | -20.79215 | 108.44366 | 35059 ft | 576 kts | 137° |
| 2026-05-07 18:14 | -20.84378 | 108.50928 | 35056 ft | 577 kts | 137° |
| 2026-05-07 18:15 | -20.89536 | 108.57491 | 35058 ft | 577 kts | 137° |
| 2026-05-07 18:15 | -20.94660 | 108.64020 | 35058 ft | 577 kts | 137° |
| 2026-05-07 18:16 | -20.99817 | 108.70598 | 35059 ft | 577 kts | 137° |
| 2026-05-07 18:16 | -21.04967 | 108.77176 | 35058 ft | 577 kts | 137° |
| 2026-05-07 18:17 | -21.10122 | 108.83768 | 35058 ft | 577 kts | 137° |
| 2026-05-07 18:17 | -21.15244 | 108.90323 | 35055 ft | 578 kts | 137° |
| 2026-05-07 18:18 | -21.20396 | 108.96927 | 35058 ft | 578 kts | 137° |
| 2026-05-07 18:18 | -21.25548 | 109.03539 | 35059 ft | 578 kts | 137° |
| 2026-05-07 18:19 | -21.30694 | 109.10150 | 35060 ft | 578 kts | 137° |
| 2026-05-07 18:19 | -21.35812 | 109.16733 | 35063 ft | 579 kts | 138° |
| 2026-05-07 18:20 | -21.40973 | 109.23378 | 35070 ft | 580 kts | 138° |
| 2026-05-07 18:20 | -21.46131 | 109.30029 | 35073 ft | 580 kts | 137° |
| 2026-05-07 18:21 | -21.51288 | 109.36688 | 35055 ft | 580 kts | 137° |
| 2026-05-07 18:21 | -21.56405 | 109.43301 | 35055 ft | 580 kts | 137° |
| 2026-05-07 18:22 | -21.61557 | 109.49970 | 35074 ft | 580 kts | 138° |
| 2026-05-07 18:22 | -21.66714 | 109.56651 | 35067 ft | 581 kts | 138° |
| 2026-05-07 18:23 | -21.71861 | 109.63328 | 35067 ft | 581 kts | 138° |
| 2026-05-07 18:23 | -21.77021 | 109.70030 | 35067 ft | 581 kts | 138° |
| 2026-05-07 18:24 | -21.82136 | 109.76683 | 35068 ft | 581 kts | 138° |
| 2026-05-07 18:24 | -21.87286 | 109.83389 | 35099 ft | 581 kts | 138° |
| 2026-05-07 18:25 | -21.92435 | 109.90103 | 35069 ft | 582 kts | 138° |
| 2026-05-07 18:25 | -21.97588 | 109.96829 | 35069 ft | 582 kts | 138° |
| 2026-05-07 18:26 | -22.02722 | 110.03485 | 35072 ft | 580 kts | 139° |
| 2026-05-07 18:26 | -22.08033 | 110.10005 | 35072 ft | 578 kts | 140° |
| 2026-05-07 18:27 | -22.13380 | 110.16497 | 35076 ft | 578 kts | 140° |
| 2026-05-07 18:27 | -22.18699 | 110.23017 | 35069 ft | 579 kts | 140° |
| 2026-05-07 18:28 | -22.23966 | 110.29522 | 35075 ft | 580 kts | 140° |
| 2026-05-07 18:28 | -22.29265 | 110.36084 | 35069 ft | 580 kts | 140° |
| 2026-05-07 18:29 | -22.34563 | 110.42650 | 35075 ft | 580 kts | 140° |
| 2026-05-07 18:29 | -22.39858 | 110.49218 | 35070 ft | 580 kts | 140° |
| 2026-05-07 18:30 | -22.45157 | 110.55798 | 35076 ft | 580 kts | 140° |
| 2026-05-07 18:30 | -22.50419 | 110.62340 | 35078 ft | 581 kts | 140° |
| 2026-05-07 18:31 | -22.55717 | 110.68936 | 35078 ft | 581 kts | 140° |
| 2026-05-07 18:31 | -22.61010 | 110.75536 | 35078 ft | 581 kts | 140° |
| 2026-05-07 18:32 | -22.66305 | 110.82145 | 35106 ft | 581 kts | 140° |
| 2026-05-07 18:32 | -22.71555 | 110.88707 | 35080 ft | 580 kts | 140° |
| 2026-05-07 18:33 | -22.76842 | 110.95323 | 35079 ft | 580 kts | 140° |
| 2026-05-07 18:33 | -22.82124 | 111.01941 | 35080 ft | 580 kts | 140° |
| 2026-05-07 18:34 | -22.87403 | 111.08564 | 35082 ft | 580 kts | 140° |
| 2026-05-07 18:34 | -22.92642 | 111.15147 | 35106 ft | 580 kts | 140° |
| 2026-05-07 18:35 | -22.97907 | 111.21771 | 35079 ft | 579 kts | 140° |
| 2026-05-07 18:35 | -23.03164 | 111.28392 | 35080 ft | 579 kts | 140° |
| 2026-05-07 18:36 | -23.08416 | 111.35015 | 35083 ft | 579 kts | 140° |
| 2026-05-07 18:36 | -23.13666 | 111.41644 | 35082 ft | 579 kts | 140° |
| 2026-05-07 18:37 | -23.18879 | 111.48235 | 35079 ft | 579 kts | 140° |
| 2026-05-07 18:37 | -23.24123 | 111.54876 | 35081 ft | 579 kts | 140° |
| 2026-05-07 18:38 | -23.29368 | 111.61525 | 35077 ft | 579 kts | 140° |
| 2026-05-07 18:38 | -23.34569 | 111.68128 | 35076 ft | 579 kts | 140° |
| 2026-05-07 18:39 | -23.39807 | 111.74786 | 35081 ft | 579 kts | 140° |
| 2026-05-07 18:39 | -23.45040 | 111.81447 | 35080 ft | 578 kts | 139° |
| 2026-05-07 18:40 | -23.50254 | 111.88099 | 35079 ft | 577 kts | 139° |
| 2026-05-07 18:40 | -23.55464 | 111.94745 | 35078 ft | 577 kts | 139° |
| 2026-05-07 18:41 | -23.60637 | 112.01353 | 35081 ft | 577 kts | 139° |
| 2026-05-07 18:41 | -23.65840 | 112.08010 | 35081 ft | 577 kts | 139° |
| 2026-05-07 18:42 | -23.71034 | 112.14666 | 35076 ft | 575 kts | 139° |
| 2026-05-07 18:42 | -23.76207 | 112.21307 | 35091 ft | 574 kts | 139° |
| 2026-05-07 18:43 | -23.81340 | 112.27901 | 35075 ft | 574 kts | 139° |
| 2026-05-07 18:43 | -23.86503 | 112.34541 | 35080 ft | 574 kts | 139° |
| 2026-05-07 18:44 | -23.91666 | 112.41191 | 35080 ft | 574 kts | 139° |
| 2026-05-07 18:44 | -23.96812 | 112.47832 | 35089 ft | 571 kts | 139° |
| 2026-05-07 18:45 | -24.01908 | 112.54417 | 35085 ft | 571 kts | 139° |
| 2026-05-07 18:45 | -24.07038 | 112.61050 | 35091 ft | 571 kts | 139° |
| 2026-05-07 18:46 | -24.12163 | 112.67687 | 35092 ft | 571 kts | 138° |
| 2026-05-07 18:46 | -24.17281 | 112.74325 | 35132 ft | 570 kts | 138° |
| 2026-05-07 18:47 | -24.22343 | 112.80902 | 35101 ft | 567 kts | 138° |
| 2026-05-07 18:47 | -24.27416 | 112.87501 | 35099 ft | 566 kts | 138° |
| 2026-05-07 18:48 | -24.32486 | 112.94102 | 35105 ft | 566 kts | 138° |
| 2026-05-07 18:48 | -24.37552 | 113.00706 | 35108 ft | 566 kts | 138° |
| 2026-05-07 18:49 | -24.42616 | 113.07318 | 35126 ft | 565 kts | 137° |
| 2026-05-07 18:49 | -24.47625 | 113.13871 | 35110 ft | 563 kts | 137° |
| 2026-05-07 18:50 | -24.52657 | 113.20460 | 35117 ft | 563 kts | 137° |
| 2026-05-07 18:50 | -24.57684 | 113.27050 | 35116 ft | 562 kts | 137° |
| 2026-05-07 18:51 | -24.62672 | 113.33599 | 35119 ft | 562 kts | 137° |
| 2026-05-07 18:51 | -24.67689 | 113.40194 | 35134 ft | 562 kts | 137° |
| 2026-05-07 18:52 | -24.72701 | 113.46794 | 35126 ft | 562 kts | 137° |
| 2026-05-07 18:52 | -24.77710 | 113.53399 | 35125 ft | 562 kts | 137° |
| 2026-05-07 18:53 | -24.82682 | 113.59964 | 35133 ft | 562 kts | 137° |
| 2026-05-07 18:53 | -24.87806 | 113.66431 | 35134 ft | 554 kts | 144° |
| 2026-05-07 18:54 | -24.93788 | 113.71563 | 35135 ft | 542 kts | 153° |
| 2026-05-07 18:54 | -24.99978 | 113.76297 | 35145 ft | 541 kts | 154° |
| 2026-05-07 18:55 | -25.06150 | 113.80940 | 35145 ft | 541 kts | 154° |
| 2026-05-07 18:55 | -25.12349 | 113.85633 | 35149 ft | 541 kts | 154° |
| 2026-05-07 18:56 | -25.18543 | 113.90351 | 35150 ft | 540 kts | 153° |
| 2026-05-07 18:56 | -25.24721 | 113.95072 | 35156 ft | 540 kts | 153° |
| 2026-05-07 18:57 | -25.30901 | 113.99799 | 35160 ft | 540 kts | 153° |
| 2026-05-07 18:57 | -25.37036 | 114.04496 | 35162 ft | 540 kts | 153° |
| 2026-05-07 18:58 | -25.43209 | 114.09228 | 35168 ft | 539 kts | 153° |
| 2026-05-07 18:58 | -25.49371 | 114.13958 | 35165 ft | 539 kts | 153° |
| 2026-05-07 18:59 | -25.55527 | 114.18689 | 35168 ft | 539 kts | 153° |
| 2026-05-07 18:59 | -25.61641 | 114.23393 | 35173 ft | 539 kts | 153° |
| 2026-05-07 19:00 | -25.67797 | 114.28136 | 35174 ft | 539 kts | 153° |
| 2026-05-07 19:00 | -25.73950 | 114.32885 | 35182 ft | 539 kts | 153° |
| 2026-05-07 19:01 | -25.80101 | 114.37635 | 35184 ft | 539 kts | 153° |
| 2026-05-07 19:01 | -25.86244 | 114.42386 | 35184 ft | 538 kts | 153° |
| 2026-05-07 19:02 | -25.92342 | 114.47108 | 35187 ft | 538 kts | 153° |
| 2026-05-07 19:02 | -25.98477 | 114.51866 | 35190 ft | 537 kts | 153° |
| 2026-05-07 19:03 | -26.04603 | 114.56623 | 35195 ft | 537 kts | 153° |
| 2026-05-07 19:03 | -26.10722 | 114.61380 | 35199 ft | 537 kts | 153° |
| 2026-05-07 19:04 | -26.16812 | 114.66120 | 35210 ft | 536 kts | 152° |
| 2026-05-07 19:04 | -26.22909 | 114.70874 | 35207 ft | 535 kts | 152° |
| 2026-05-07 19:05 | -26.29007 | 114.75634 | 35216 ft | 535 kts | 152° |
| 2026-05-07 19:05 | -26.35091 | 114.80388 | 35219 ft | 535 kts | 152° |
| 2026-05-07 19:06 | -26.41142 | 114.85122 | 35231 ft | 534 kts | 151° |
| 2026-05-07 19:06 | -26.50230 | 114.92247 | 35231 ft | 532 kts | 151° |
| 2026-05-07 19:07 | -26.56285 | 114.97001 | 35231 ft | 532 kts | 151° |
| 2026-05-07 19:07 | -26.62339 | 115.01759 | 35232 ft | 532 kts | 152° |
| 2026-05-07 19:08 | -26.68334 | 115.06479 | 35242 ft | 529 kts | 150° |
| 2026-05-07 19:08 | -26.74343 | 115.11216 | 35241 ft | 528 kts | 150° |
| 2026-05-07 19:09 | -26.80356 | 115.15961 | 35250 ft | 528 kts | 150° |
| 2026-05-07 19:09 | -26.86360 | 115.20705 | 35249 ft | 528 kts | 150° |
| 2026-05-07 19:10 | -26.92310 | 115.25413 | 35249 ft | 527 kts | 150° |
| 2026-05-07 19:10 | -26.98300 | 115.30161 | 35262 ft | 527 kts | 150° |
| 2026-05-07 19:11 | -27.04275 | 115.34902 | 35260 ft | 527 kts | 150° |
| 2026-05-07 19:11 | -27.10255 | 115.39653 | 35265 ft | 527 kts | 150° |
| 2026-05-07 19:12 | -27.16180 | 115.44367 | 35270 ft | 525 kts | 150° |
| 2026-05-07 19:12 | -27.22134 | 115.49110 | 35272 ft | 524 kts | 150° |
| 2026-05-07 19:13 | -27.28081 | 115.53854 | 35282 ft | 524 kts | 150° |
| 2026-05-07 19:13 | -27.34017 | 115.58596 | 35278 ft | 524 kts | 149° |
| 2026-05-07 19:14 | -27.40139 | 115.62959 | 35285 ft | 517 kts | 156° |
| 2026-05-07 19:14 | -27.46468 | 115.66674 | 35289 ft | 516 kts | 158° |
| 2026-05-07 19:15 | -27.52869 | 115.70325 | 35292 ft | 516 kts | 158° |
| 2026-05-07 19:15 | -27.59279 | 115.73981 | 35311 ft | 516 kts | 158° |
| 2026-05-07 19:16 | -27.65671 | 115.77646 | 35300 ft | 515 kts | 157° |
| 2026-05-07 19:16 | -27.72017 | 115.81298 | 35301 ft | 515 kts | 157° |
| 2026-05-07 19:17 | -27.78398 | 115.84975 | 35304 ft | 515 kts | 157° |
| 2026-05-07 19:17 | -27.84778 | 115.88655 | 35310 ft | 515 kts | 157° |
| 2026-05-07 19:18 | -27.91104 | 115.92310 | 35305 ft | 514 kts | 157° |
| 2026-05-07 19:18 | -27.97468 | 115.95990 | 35318 ft | 513 kts | 157° |
| 2026-05-07 19:19 | -28.03818 | 115.99668 | 35322 ft | 513 kts | 157° |
| 2026-05-07 19:19 | -28.10175 | 116.03354 | 35327 ft | 513 kts | 157° |
| 2026-05-07 19:20 | -28.16476 | 116.07012 | 35322 ft | 513 kts | 157° |
| 2026-05-07 19:20 | -28.22832 | 116.10708 | 35320 ft | 513 kts | 157° |
| 2026-05-07 19:21 | -28.29179 | 116.14404 | 35335 ft | 513 kts | 157° |
| 2026-05-07 19:21 | -28.35525 | 116.18103 | 35336 ft | 512 kts | 156° |
| 2026-05-07 19:22 | -28.41811 | 116.21774 | 35340 ft | 512 kts | 156° |
| 2026-05-07 19:22 | -28.48139 | 116.25473 | 35339 ft | 512 kts | 156° |
| 2026-05-07 19:23 | -28.54467 | 116.29178 | 35359 ft | 512 kts | 156° |
| 2026-05-07 19:23 | -28.60788 | 116.32882 | 35348 ft | 511 kts | 156° |
| 2026-05-07 19:24 | -28.67118 | 116.36599 | 35349 ft | 511 kts | 156° |
| 2026-05-07 19:24 | -28.73370 | 116.40274 | 35357 ft | 511 kts | 156° |
| 2026-05-07 19:25 | -28.79704 | 116.44001 | 35359 ft | 511 kts | 156° |
| 2026-05-07 19:25 | -28.86011 | 116.47718 | 35357 ft | 510 kts | 156° |
| 2026-05-07 19:26 | -28.92319 | 116.51442 | 35362 ft | 510 kts | 156° |
| 2026-05-07 19:26 | -28.98584 | 116.55145 | 35364 ft | 510 kts | 156° |
| 2026-05-07 19:27 | -29.04886 | 116.58875 | 35368 ft | 510 kts | 155° |
| 2026-05-07 19:27 | -29.11179 | 116.62605 | 35368 ft | 510 kts | 155° |
| 2026-05-07 19:28 | -29.17663 | 116.65751 | 35377 ft | 504 kts | 168° |
| 2026-05-07 19:28 | -29.24550 | 116.66697 | 35375 ft | 497 kts | 182° |
| 2026-05-07 19:29 | -29.31416 | 116.66603 | 35381 ft | 497 kts | 184° |
| 2026-05-07 19:29 | -29.38334 | 116.66370 | 35383 ft | 497 kts | 184° |
| 2026-05-07 19:30 | -29.45257 | 116.66151 | 35388 ft | 497 kts | 184° |
| 2026-05-07 19:30 | -29.52175 | 116.65957 | 35393 ft | 498 kts | 183° |
| 2026-05-07 19:31 | -29.59053 | 116.65773 | 35389 ft | 498 kts | 183° |
| 2026-05-07 19:31 | -29.65982 | 116.65590 | 35389 ft | 498 kts | 183° |
| 2026-05-07 19:32 | -29.72915 | 116.65405 | 35394 ft | 498 kts | 183° |
| 2026-05-07 19:32 | -29.79428 | 116.65230 | 35398 ft | 498 kts | 183° |
| 2026-05-07 19:33 | -29.86314 | 116.65045 | 35398 ft | 499 kts | 183° |
| 2026-05-07 19:33 | -29.93256 | 116.64859 | 35405 ft | 499 kts | 183° |
| 2026-05-07 19:34 | -30.00187 | 116.64672 | 35403 ft | 498 kts | 183° |
| 2026-05-07 19:34 | -30.07125 | 116.64484 | 35410 ft | 499 kts | 182° |
| 2026-05-07 19:35 | -30.14060 | 116.64297 | 35404 ft | 499 kts | 182° |
| 2026-05-07 19:35 | -30.20953 | 116.64111 | 35415 ft | 499 kts | 182° |
| 2026-05-07 19:36 | -30.27890 | 116.63923 | 35409 ft | 499 kts | 182° |
| 2026-05-07 19:36 | -30.34832 | 116.63735 | 35412 ft | 499 kts | 182° |
| 2026-05-07 19:37 | -30.41766 | 116.63547 | 35414 ft | 499 kts | 182° |
| 2026-05-07 19:37 | -30.48662 | 116.63360 | 35419 ft | 499 kts | 182° |
| 2026-05-07 19:38 | -30.55560 | 116.62769 | 35420 ft | 497 kts | 192° |
| 2026-05-07 19:38 | -30.62203 | 116.60569 | 35424 ft | 496 kts | 199° |
| 2026-05-07 19:39 | -30.68750 | 116.58035 | 35417 ft | 496 kts | 199° |
| 2026-05-07 19:39 | -30.75242 | 116.55471 | 35428 ft | 496 kts | 199° |
| 2026-05-07 19:40 | -30.81791 | 116.52903 | 35422 ft | 497 kts | 199° |
| 2026-05-07 19:40 | -30.88346 | 116.50344 | 35417 ft | 497 kts | 199° |
| 2026-05-07 19:41 | -30.91611 | 116.49067 | 35230 ft | 490 kts | 199° |
| 2026-05-07 19:41 | -30.94828 | 116.47808 | 34442 ft | 489 kts | 199° |
| 2026-05-07 19:41 | -30.98071 | 116.46539 | 33203 ft | 495 kts | 199° |
| 2026-05-07 19:41 | -31.01320 | 116.45266 | 31945 ft | 501 kts | 198° |
| 2026-05-07 19:42 | -31.04639 | 116.43966 | 30785 ft | 506 kts | 198° |
| 2026-05-07 19:42 | -31.07999 | 116.42652 | 29662 ft | 511 kts | 198° |
| 2026-05-07 19:42 | -31.11354 | 116.41333 | 28734 ft | 508 kts | 197° |
| 2026-05-07 19:42 | -31.14694 | 116.40020 | 27974 ft | 504 kts | 197° |
| 2026-05-07 19:43 | -31.17977 | 116.38729 | 27530 ft | 493 kts | 197° |
| 2026-05-07 19:43 | -31.21210 | 116.37456 | 26827 ft | 489 kts | 197° |
| 2026-05-07 19:43 | -31.24420 | 116.36192 | 26140 ft | 485 kts | 197° |
| 2026-05-07 19:43 | -31.27563 | 116.34954 | 25490 ft | 481 kts | 197° |
| 2026-05-07 19:44 | -31.30730 | 116.33705 | 24729 ft | 480 kts | 197° |
| 2026-05-07 19:44 | -31.33887 | 116.32460 | 24020 ft | 478 kts | 197° |
| 2026-05-07 19:44 | -31.37027 | 116.31221 | 23261 ft | 474 kts | 196° |
| 2026-05-07 19:44 | -31.40132 | 116.29989 | 22596 ft | 468 kts | 197° |
| 2026-05-07 19:45 | -31.43108 | 116.28480 | 21918 ft | 465 kts | 205° |
| 2026-05-07 19:45 | -31.45937 | 116.26694 | 21261 ft | 461 kts | 207° |
| 2026-05-07 19:45 | -31.48733 | 116.24891 | 20591 ft | 456 kts | 207° |
| 2026-05-07 19:45 | -31.51510 | 116.23105 | 19925 ft | 452 kts | 207° |
| 2026-05-07 19:46 | -31.54262 | 116.21339 | 19252 ft | 449 kts | 207° |
| 2026-05-07 19:46 | -31.56954 | 116.19612 | 18572 ft | 446 kts | 207° |
| 2026-05-07 19:46 | -31.59660 | 116.17877 | 17840 ft | 442 kts | 207° |
| 2026-05-07 19:46 | -31.62343 | 116.16155 | 17166 ft | 437 kts | 207° |
| 2026-05-07 19:47 | -31.64995 | 116.14454 | 16448 ft | 432 kts | 207° |
| 2026-05-07 19:47 | -31.67689 | 116.12998 | 15797 ft | 425 kts | 198° |
| 2026-05-07 19:47 | -31.70531 | 116.12083 | 15157 ft | 418 kts | 189° |
| 2026-05-07 19:47 | -31.73365 | 116.11406 | 14548 ft | 414 kts | 188° |
| 2026-05-07 19:48 | -31.76181 | 116.10748 | 13909 ft | 411 kts | 188° |
| 2026-05-07 19:48 | -31.78940 | 116.10104 | 13243 ft | 407 kts | 188° |
| 2026-05-07 19:48 | -31.81700 | 116.09469 | 12583 ft | 402 kts | 188° |
| 2026-05-07 19:48 | -31.84423 | 116.08850 | 11930 ft | 397 kts | 188° |
| 2026-05-07 19:49 | -31.87131 | 116.08242 | 11304 ft | 392 kts | 188° |
| 2026-05-07 19:49 | -31.89762 | 116.07660 | 10932 ft | 379 kts | 188° |
| 2026-05-07 19:49 | -31.92313 | 116.07096 | 10678 ft | 364 kts | 188° |
| 2026-05-07 19:49 | -31.94753 | 116.06557 | 10453 ft | 351 kts | 188° |
| 2026-05-07 19:50 | -31.97084 | 116.05924 | 10196 ft | 340 kts | 198° |
| 2026-05-07 19:50 | -31.99089 | 116.04532 | 9928 ft | 332 kts | 220° |
| 2026-05-07 19:50 | -32.00459 | 116.02409 | 9659 ft | 323 kts | 244° |
| 2026-05-07 19:50 | -32.01008 | 115.99940 | 9367 ft | 314 kts | 267° |
| 2026-05-07 19:51 | -32.00895 | 115.97397 | 9027 ft | 308 kts | 277° |
| 2026-05-07 19:51 | -32.00621 | 115.94925 | 8664 ft | 303 kts | 278° |
| 2026-05-07 19:51 | -32.00334 | 115.92481 | 8307 ft | 298 kts | 278° |
| 2026-05-07 19:51 | -32.00056 | 115.90079 | 7965 ft | 294 kts | 278° |
| 2026-05-07 19:52 | -31.99785 | 115.87707 | 7624 ft | 291 kts | 278° |
| 2026-05-07 19:52 | -31.99516 | 115.85344 | 7309 ft | 289 kts | 278° |
| 2026-05-07 19:52 | -31.99248 | 115.83013 | 6989 ft | 286 kts | 278° |
| 2026-05-07 19:52 | -31.98678 | 115.80797 | 6629 ft | 282 kts | 301° |
| 2026-05-07 19:53 | -31.97402 | 115.79118 | 6277 ft | 273 kts | 328° |
| 2026-05-07 19:53 | -31.95709 | 115.78328 | 5923 ft | 264 kts | 355° |
| 2026-05-07 19:53 | -31.93929 | 115.78544 | 5548 ft | 255 kts | 22° |
| 2026-05-07 19:53 | -31.92514 | 115.79710 | 5313 ft | 247 kts | 50° |
| 2026-05-07 19:54 | -31.91805 | 115.81535 | 5265 ft | 251 kts | 77° |
| 2026-05-07 19:54 | -31.91947 | 115.83597 | 5266 ft | 260 kts | 104° |
| 2026-05-07 19:54 | -31.92932 | 115.85411 | 5264 ft | 271 kts | 132° |
| 2026-05-07 19:54 | -31.94569 | 115.86548 | 5262 ft | 281 kts | 159° |
| 2026-05-07 19:55 | -31.96526 | 115.86758 | 5265 ft | 287 kts | 183° |
| 2026-05-07 19:55 | -31.98508 | 115.86427 | 5264 ft | 289 kts | 188° |
| 2026-05-07 19:55 | -32.00461 | 115.86003 | 5285 ft | 289 kts | 190° |
| 2026-05-07 19:55 | -32.02325 | 115.85110 | 5290 ft | 291 kts | 214° |
| 2026-05-07 19:56 | -32.03708 | 115.83416 | 5292 ft | 287 kts | 242° |
| 2026-05-07 19:56 | -32.04324 | 115.81221 | 5294 ft | 280 kts | 269° |
| 2026-05-07 19:56 | -32.04067 | 115.79025 | 5282 ft | 261 kts | 297° |
| 2026-05-07 19:56 | -32.03077 | 115.77405 | 5281 ft | 232 kts | 327° |
| 2026-05-07 19:57 | -32.01666 | 115.76702 | 5287 ft | 217 kts | 358° |
| 2026-05-07 19:57 | -32.00223 | 115.77023 | 5292 ft | 212 kts | 29° |
| 2026-05-07 19:57 | -31.99189 | 115.78241 | 5293 ft | 216 kts | 60° |
| 2026-05-07 19:57 | -31.98892 | 115.79958 | 5295 ft | 224 kts | 91° |
| 2026-05-07 19:58 | -31.99445 | 115.81696 | 5291 ft | 236 kts | 121° |
| 2026-05-07 19:58 | -32.00740 | 115.82920 | 5292 ft | 247 kts | 152° |
| 2026-05-07 19:58 | -32.02446 | 115.83266 | 5299 ft | 254 kts | 181° |
| 2026-05-07 19:58 | -32.04200 | 115.83014 | 5186 ft | 251 kts | 187° |
| 2026-05-07 19:59 | -32.05925 | 115.82651 | 4773 ft | 255 kts | 188° |
| 2026-05-07 19:59 | -32.07680 | 115.82258 | 4343 ft | 258 kts | 188° |
| 2026-05-07 19:59 | -32.09449 | 115.81859 | 3990 ft | 259 kts | 188° |
| 2026-05-07 19:59 | -32.11222 | 115.81456 | 3660 ft | 259 kts | 189° |
| 2026-05-07 20:00 | -32.12978 | 115.81305 | 3246 ft | 254 kts | 166° |
| 2026-05-07 20:00 | -32.14532 | 115.82073 | 3057 ft | 236 kts | 133° |
| 2026-05-07 20:00 | -32.15466 | 115.83555 | 3022 ft | 221 kts | 105° |
| 2026-05-07 20:00 | -32.15962 | 115.85235 | 3006 ft | 209 kts | 99° |
| 2026-05-07 20:01 | -32.16310 | 115.86819 | 3002 ft | 194 kts | 88° |
| 2026-05-07 20:01 | -32.16081 | 115.88313 | 3023 ft | 182 kts | 62° |
| 2026-05-07 20:01 | -32.15518 | 115.89636 | 3004 ft | 178 kts | 50° |
| 2026-05-07 20:01 | -32.14548 | 115.90385 | 3014 ft | 162 kts | 22° |
| 2026-05-07 20:02 | -32.13502 | 115.90755 | 3017 ft | 159 kts | 18° |
| 2026-05-07 20:02 | -32.12437 | 115.91102 | 3025 ft | 158 kts | 18° |
| 2026-05-07 20:02 | -32.11379 | 115.91428 | 3038 ft | 157 kts | 17° |
| 2026-05-07 20:02 | -32.10314 | 115.91741 | 2980 ft | 159 kts | 17° |
| 2026-05-07 20:03 | -32.09244 | 115.92053 | 2808 ft | 157 kts | 17° |
| 2026-05-07 20:03 | -32.08191 | 115.92361 | 2584 ft | 155 kts | 17° |
| 2026-05-07 20:03 | -32.07144 | 115.92669 | 2364 ft | 156 kts | 17° |
| 2026-05-07 20:03 | -32.06083 | 115.92979 | 2150 ft | 157 kts | 18° |
| 2026-05-07 20:04 | -32.05073 | 115.93273 | 1933 ft | 143 kts | 18° |
| 2026-05-07 20:04 | -32.04154 | 115.93542 | 1739 ft | 131 kts | 19° |
| 2026-05-07 20:04 | -32.03319 | 115.93785 | 1581 ft | 120 kts | 20° |
| 2026-05-07 20:04 | -32.02506 | 115.94026 | 1429 ft | 121 kts | 19° |
| 2026-05-07 20:05 | -32.01684 | 115.94267 | 1241 ft | 122 kts | 20° |
| 2026-05-07 20:05 | -32.00850 | 115.94510 | 1074 ft | 124 kts | 21° |
| 2026-05-07 20:05 | -32.00012 | 115.94758 | 905 ft | 124 kts | 20° |
| 2026-05-07 20:05 | -31.99158 | 115.95009 | 756 ft | 129 kts | 19° |
| 2026-05-07 20:06 | -31.98287 | 115.95278 | 577 ft | 129 kts | 17° |
| 2026-05-07 20:06 | -31.97420 | 115.95523 | 407 ft | 130 kts | 16° |
| 2026-05-07 20:06 | -31.96539 | 115.95774 | 242 ft | 130 kts | 17° |
| 2026-05-07 20:06 | -31.95664 | 115.96026 | 99 ft | 130 kts | 16° |
| 2026-05-07 20:07 | -31.94874 | 115.96261 | 68 ft | 94 kts | 13° |
| 2026-05-07 20:07 | -31.94408 | 115.96394 | 65 ft | 48 kts | 14° |
| 2026-05-07 20:07 | -31.94195 | 115.96460 | 67 ft | 17 kts | 20° |
| 2026-05-07 20:07 | -31.94111 | 115.96555 | 67 ft | 17 kts | 59° |
| 2026-05-07 20:08 | -31.94054 | 115.96666 | 68 ft | 11 kts | 58° |
| 2026-05-07 20:08 | -31.94019 | 115.96734 | 67 ft | 11 kts | 58° |
| 2026-05-07 20:08 | -31.93975 | 115.96819 | 64 ft | 14 kts | 58° |
| 2026-05-07 20:08 | -31.93948 | 115.96868 | 66 ft | 9 kts | 53° |
| 2026-05-07 20:09 | -31.93920 | 115.96967 | 68 ft | 10 kts | 95° |
| 2026-05-07 20:09 | -31.93938 | 115.97056 | 72 ft | 13 kts | 104° |
| 2026-05-07 20:09 | -31.93957 | 115.97145 | 67 ft | 8 kts | 104° |
| 2026-05-07 20:10 | -31.93979 | 115.97209 | 63 ft | 5 kts | 136° |
| 2026-05-07 20:10 | -31.94011 | 115.97214 | 66 ft | 11 kts | 178° |
| 2026-05-07 20:10 | -31.94058 | 115.97221 | 67 ft | 3 kts | 171° |
| 2026-05-07 20:10 | -31.94069 | 115.97223 | 68 ft | 0 kts | 171° |